»·PEaware :: N523VG KEWR-KJFK

N523VG :: KEWR-KJFK

FLIGHT INFORMATION

Flight Status: Arrived
Operator: Privately registered:
United States
More flights under this callsign
Pilot: Thomas S. (17015)
Aircraft: Unknown
(VIPJ)
More flights by this aircraft type
Origin: KEWR Newark Intl
United States
Destination: KJFK Kennedy Intl
United States
More flights between these airports :: More routes between these airports
Route: EWR4 BREZY V39 CMK V374 DENNA BDR V44 DPK
File this flight plan on PilotEdge
Remarks:
Altitude:
(Current/Filed)
11,000ft
Speed:
(Current/Filed)
300kts
Departed: 15-Nov-22 12:27 PM
Arrived: 15-Nov-22 01:16 PM
Distance/Time
Traveled:
17nm/0:48
Distance/Time
To Go:
Arrived

Flight Plot

Page will automatically refresh every two minutes.

Flight plan parsing failed; only flown route is shown


Map Options




Map Legend


Flown Route
Filed Route
Departure Airport
Arrival Airport
Navaid (VOR, NDB)
Fix

Horizontal Profiles

Position Reports

Time Latitude Longitude Heading Altitude Ground
Speed
15-Nov-22 12:25 40.676040 -74.180421 157 9ft 0kts
15-Nov-22 12:26 40.690639 -74.169790 26 77ft 225kts
15-Nov-22 12:27 40.741462 -74.107232 47 2989ft 250kts
15-Nov-22 12:28 40.795274 -74.128774 285 7495ft 276kts
15-Nov-22 12:29 40.865939 -74.157718 3 10986ft 313kts
15-Nov-22 12:30 40.959840 -74.150400 3 11004ft 349kts
15-Nov-22 12:31 41.060758 -74.142530 3 11002ft 362kts
15-Nov-22 12:32 41.161936 -74.102998 48 11006ft 405kts
15-Nov-22 12:33 41.197560 -73.958564 73 11002ft 419kts
15-Nov-22 12:34 41.230855 -73.806752 73 11001ft 423kts
15-Nov-22 12:35 41.264118 -73.654800 73 11062ft 418kts
15-Nov-22 12:36 41.271656 -73.512633 98 10999ft 373kts
15-Nov-22 12:37 41.255607 -73.376460 98 11000ft 365kts
15-Nov-22 12:38 41.216391 -73.262210 116 10995ft 312kts
15-Nov-22 12:39 41.178770 -73.162641 116 10998ft 289kts
15-Nov-22 12:40 41.179335 -73.052434 76 11005ft 322kts
15-Nov-22 12:41 41.201121 -72.932153 76 11002ft 336kts
15-Nov-22 12:42 41.173460 -72.826330 163 11011ft 340kts
15-Nov-22 12:43 41.107408 -72.892261 256 11008ft 342kts
15-Nov-22 12:44 41.084788 -73.016852 256 11001ft 342kts
15-Nov-22 12:45 41.076076 -73.141639 300 11009ft 342kts
15-Nov-22 12:46 41.158121 -73.149645 52 11010ft 342kts
15-Nov-22 12:47 41.185162 -73.027465 76 11001ft 343kts
15-Nov-22 12:48 41.207747 -72.902876 76 11001ft 342kts
15-Nov-22 12:49 41.170644 -72.803204 171 11010ft 342kts
15-Nov-22 12:50 41.109091 -72.882161 256 11006ft 342kts
15-Nov-22 12:51 41.125237 -73.006272 286 11001ft 342kts
15-Nov-22 12:52 41.154670 -73.126454 262 11006ft 341kts
15-Nov-22 12:53 41.081066 -73.177298 169 11006ft 342kts
15-Nov-22 12:54 41.024244 -73.255748 282 11010ft 342kts
15-Nov-22 12:55 41.101103 -73.318642 346 11002ft 343kts
15-Nov-22 12:56 41.195037 -73.330348 29 11009ft 342kts
15-Nov-22 12:57 41.252981 -73.227669 56 11002ft 342kts
15-Nov-22 12:58 41.277541 -73.112580 119 11009ft 342kts
15-Nov-22 12:59 41.191916 -73.085156 201 11014ft 341kts
15-Nov-22 13:00 41.100017 -73.047498 165 11009ft 361kts
15-Nov-22 13:01 41.007213 -73.097111 215 10996ft 368kts
15-Nov-22 13:02 40.938019 -73.163181 216 10526ft 235kts
15-Nov-22 13:03 40.892355 -73.207084 216 9677ft 179kts
15-Nov-22 13:04 40.868332 -73.261746 256 8708ft 191kts
15-Nov-22 13:05 40.855940 -73.330840 256 7569ft 190kts
15-Nov-22 13:06 40.843841 -73.398459 257 6359ft 187kts
15-Nov-22 13:07 40.824906 -73.462049 247 5175ft 183kts
15-Nov-22 13:08 40.806588 -73.518305 247 4129ft 160kts
15-Nov-22 13:09 40.789227 -73.571679 247 3019ft 156kts
15-Nov-22 13:10 40.769605 -73.628778 238 2934ft 179kts
15-Nov-22 13:11 40.743009 -73.681548 231 2514ft 169kts
15-Nov-22 13:12 40.707230 -73.719166 209 1330ft 166kts
15-Nov-22 13:13 40.672538 -73.745983 210 529ft 124kts
15-Nov-22 13:14 40.642442 -73.769600 210 29ft 125kts
15-Nov-22 13:15 40.633177 -73.778245 301 6ft 0kts
15-Nov-22 13:16 40.633179 -73.778251 301 6ft 0kts
15-Nov-22 13:17 40.634294 -73.780828 299 6ft 8kts
15-Nov-22 13:18 40.636564 -73.785843 300 6ft 23kts
15-Nov-22 13:19 40.638843 -73.790859 299 9ft 11kts
15-Nov-22 13:20 40.640910 -73.795324 301 8ft 16kts
15-Nov-22 13:21 40.643158 -73.799244 307 9ft 10kts
15-Nov-22 13:22 40.645490 -73.804371 300 9ft 17kts
15-Nov-22 13:23 40.647789 -73.809461 302 9ft 15kts
15-Nov-22 13:24 40.650051 -73.810946 61 9ft 7kts
15-Nov-22 13:25 40.649346 -73.809817 292 9ft 3kts
15-Nov-22 13:26 40.649358 -73.809840 305 9ft 0kts

Navigation Log

Ident Type
Flight plan parsing failed, navigation log unavailable